createdAt,value
2022-10-13T00:00:31.812Z,95.90
2022-10-13T00:03:02.391Z,95.62
2022-10-13T00:05:30.621Z,95.62
2022-10-13T00:07:58.079Z,95.92
2022-10-13T00:10:25.625Z,95.64
2022-10-13T00:12:52.203Z,95.54
2022-10-13T00:15:20.183Z,95.67
2022-10-13T00:17:46.763Z,96.12
2022-10-13T00:20:13.238Z,96.18
2022-10-13T00:22:39.868Z,96.25
2022-10-13T00:25:06.891Z,96.48
2022-10-13T00:27:33.418Z,96.40
2022-10-13T00:29:59.971Z,96.69
2022-10-13T00:32:26.464Z,96.44
2022-10-13T00:34:53.048Z,96.85
2022-10-13T00:37:19.520Z,96.69
2022-10-13T00:39:45.987Z,96.34
2022-10-13T00:42:13.384Z,96.44
2022-10-13T00:45:02.821Z,96.42
2022-10-13T00:47:36.341Z,96.32
2022-10-13T00:50:04.774Z,96.61
2022-10-13T00:52:33.093Z,96.19
2022-10-13T00:55:01.288Z,95.85
2022-10-13T00:57:27.844Z,95.34
2022-10-13T00:59:54.904Z,95.34
2022-10-13T01:02:23.712Z,95.04
2022-10-13T01:04:51.505Z,95.22
2022-10-13T01:07:19.081Z,94.92
2022-10-13T01:09:45.795Z,95.37
2022-10-13T01:12:39.823Z,95.47
2022-10-13T01:15:20.475Z,95.61
2022-10-13T01:17:57.318Z,95.57
2022-10-13T01:20:49.508Z,95.75
2022-10-13T01:23:35.001Z,95.79
2022-10-13T01:26:37.131Z,95.87
2022-10-13T01:29:18.080Z,95.77
2022-10-13T01:32:29.003Z,95.79
2022-10-13T01:35:03.943Z,96.10
2022-10-13T01:37:39.220Z,96.21
2022-10-13T01:40:23.755Z,96.65
2022-10-13T01:43:17.430Z,96.42
2022-10-13T01:46:20.035Z,96.73
2022-10-13T01:48:46.588Z,96.52
2022-10-13T01:51:18.288Z,96.67
2022-10-13T01:53:47.423Z,96.66
2022-10-13T01:56:14.542Z,96.70
2022-10-13T01:58:41.557Z,96.94
2022-10-13T02:01:14.052Z,97.25
2022-10-13T02:03:49.788Z,97.26
2022-10-13T02:06:39.734Z,97.21
2022-10-13T02:09:20.172Z,96.99
2022-10-13T02:11:52.629Z,96.89
2022-10-13T02:14:29.985Z,97.03
2022-10-13T02:17:00.092Z,95.95
2022-10-13T02:19:28.783Z,95.65
2022-10-13T02:21:57.606Z,95.71
2022-10-13T02:24:24.168Z,95.93
2022-10-13T02:26:51.953Z,95.37
2022-10-13T02:29:19.456Z,95.47
2022-10-13T02:31:46.578Z,95.45
2022-10-13T02:34:13.997Z,95.44
2022-10-13T02:36:40.832Z,95.57
2022-10-13T02:39:09.501Z,95.39
2022-10-13T02:41:36.906Z,95.46
2022-10-13T02:44:04.000Z,95.62
2022-10-13T02:46:30.496Z,96.12
2022-10-13T02:48:57.175Z,96.18
2022-10-13T02:51:23.723Z,96.32
2022-10-13T02:53:50.272Z,96.24
2022-10-13T02:56:16.810Z,96.14
2022-10-13T02:58:43.276Z,95.87
2022-10-13T03:01:14.047Z,95.92
2022-10-13T03:03:40.641Z,94.32
2022-10-13T03:06:07.974Z,93.56
2022-10-13T03:08:36.320Z,93.03
2022-10-13T03:11:03.302Z,92.97
2022-10-13T03:13:30.185Z,93.20
2022-10-13T03:15:56.707Z,93.34
2022-10-13T03:18:23.224Z,93.45
2022-10-13T03:21:01.199Z,93.66
2022-10-13T03:23:27.947Z,94.32
2022-10-13T03:25:55.301Z,94.90
2022-10-13T03:28:22.777Z,94.74
2022-10-13T03:30:49.427Z,95.18
2022-10-13T03:33:15.989Z,94.38
2022-10-13T03:35:42.569Z,94.84
2022-10-13T03:38:09.075Z,94.62
2022-10-13T03:40:36.903Z,94.81
2022-10-13T03:43:03.476Z,95.32
2022-10-13T03:45:31.423Z,95.41
2022-10-13T03:47:58.324Z,95.49
2022-10-13T03:50:24.927Z,95.42
2022-10-13T03:52:51.393Z,95.49
2022-10-13T03:55:17.973Z,95.40
2022-10-13T03:57:44.504Z,95.60
2022-10-13T04:00:11.915Z,95.39
2022-10-13T04:02:38.456Z,95.58
2022-10-13T04:05:05.345Z,95.59
2022-10-13T04:07:32.031Z,95.84
2022-10-13T04:09:58.487Z,95.44
2022-10-13T04:12:25.310Z,95.62
2022-10-13T04:14:52.140Z,95.89
2022-10-13T04:17:18.701Z,95.87
2022-10-13T04:19:45.175Z,96.07
2022-10-13T04:22:11.621Z,96.17
2022-10-13T04:24:39.233Z,96.39
2022-10-13T04:27:05.761Z,95.92
2022-10-13T04:29:32.318Z,96.12
2022-10-13T04:32:01.855Z,96.25
2022-10-13T04:34:28.336Z,96.09
2022-10-13T04:36:54.792Z,97.05
2022-10-13T04:39:26.324Z,96.42
2022-10-13T04:41:52.892Z,96.39
2022-10-13T04:44:19.437Z,96.52
2022-10-13T04:46:46.083Z,96.20
2022-10-13T04:49:15.306Z,95.87
2022-10-13T04:51:41.868Z,95.45
2022-10-13T04:54:08.406Z,95.74
2022-10-13T04:56:35.352Z,95.32
2022-10-13T04:59:02.656Z,95.49
2022-10-13T05:01:29.176Z,95.59
2022-10-13T05:03:58.233Z,95.64
2022-10-13T05:06:27.232Z,95.34
2022-10-13T05:08:53.804Z,95.42
2022-10-13T05:11:24.393Z,95.97
2022-10-13T05:13:50.998Z,96.02
2022-10-13T05:16:18.617Z,95.67
2022-10-13T05:18:45.791Z,95.80
2022-10-13T05:21:26.831Z,95.49
2022-10-13T05:23:55.901Z,95.58
2022-10-13T05:26:28.661Z,95.57
2022-10-13T05:28:59.847Z,95.38
2022-10-13T05:31:28.535Z,95.50
2022-10-13T05:33:55.856Z,95.70
2022-10-13T05:36:34.037Z,96.09
2022-10-13T05:39:03.247Z,95.99
2022-10-13T05:41:30.811Z,96.15
2022-10-13T05:44:17.652Z,95.66
2022-10-13T05:46:44.659Z,95.81
2022-10-13T05:49:11.239Z,95.76
2022-10-13T05:51:47.074Z,95.62
2022-10-13T05:54:15.906Z,95.33
2022-10-13T05:56:51.977Z,95.28
2022-10-13T05:59:26.066Z,95.05
2022-10-13T06:01:53.988Z,94.85
2022-10-13T06:04:24.860Z,94.29
2022-10-13T06:06:52.786Z,94.86
2022-10-13T06:09:20.759Z,94.97
2022-10-13T06:11:47.326Z,95.47
2022-10-13T06:14:15.867Z,95.34
2022-10-13T06:16:47.362Z,95.29
2022-10-13T06:19:14.925Z,95.53
2022-10-13T06:21:41.500Z,95.87
2022-10-13T06:24:08.121Z,95.46
2022-10-13T06:26:34.694Z,95.00
2022-10-13T06:29:04.577Z,94.62
2022-10-13T06:31:31.205Z,95.06
2022-10-13T06:33:58.688Z,94.54
2022-10-13T06:36:25.348Z,94.51
2022-10-13T06:38:52.010Z,94.51
2022-10-13T06:41:18.566Z,94.50
2022-10-13T06:43:45.320Z,94.34
2022-10-13T06:46:12.778Z,93.60
2022-10-13T06:48:39.608Z,93.74
2022-10-13T06:51:09.101Z,93.37
2022-10-13T06:53:36.031Z,93.62
2022-10-13T06:56:05.601Z,93.72
2022-10-13T06:58:32.688Z,93.67
2022-10-13T07:00:59.278Z,93.60
2022-10-13T07:03:26.140Z,94.03
2022-10-13T07:05:52.835Z,93.86
2022-10-13T07:08:19.855Z,93.94
2022-10-13T07:10:46.874Z,93.84
2022-10-13T07:13:13.425Z,93.97
2022-10-13T07:15:40.801Z,92.99
2022-10-13T07:18:07.478Z,92.87
2022-10-13T07:20:34.294Z,92.80
2022-10-13T07:23:01.189Z,93.44
2022-10-13T07:25:28.351Z,93.51
2022-10-13T07:27:54.951Z,93.50
2022-10-13T07:30:21.919Z,93.05
2022-10-13T07:32:48.915Z,92.96
2022-10-13T07:35:15.700Z,92.54
2022-10-13T07:37:42.183Z,92.44
2022-10-13T07:40:09.224Z,92.42
2022-10-13T07:42:35.873Z,92.45
2022-10-13T07:45:02.348Z,92.73
2022-10-13T07:47:29.079Z,92.89
2022-10-13T07:49:55.846Z,93.34
2022-10-13T07:52:22.971Z,93.22
2022-10-13T07:54:50.775Z,93.17
2022-10-13T07:57:17.958Z,93.28
2022-10-13T07:59:44.639Z,93.24
2022-10-13T08:02:11.276Z,93.34
2022-10-13T08:04:38.123Z,93.49
2022-10-13T08:07:05.938Z,92.67
2022-10-13T08:09:33.223Z,92.35
2022-10-13T08:12:00.873Z,92.21
2022-10-13T08:14:29.233Z,91.64
2022-10-13T08:16:56.408Z,90.89
2022-10-13T08:19:23.852Z,91.30
2022-10-13T08:21:59.694Z,90.69
2022-10-13T08:24:27.907Z,90.61
2022-10-13T08:26:55.149Z,89.25
2022-10-13T08:29:23.405Z,88.63
2022-10-13T08:31:52.557Z,88.46
2022-10-13T08:34:19.536Z,88.59
2022-10-13T08:36:46.221Z,88.97
2022-10-13T08:39:14.043Z,88.51
2022-10-13T08:41:50.030Z,88.70
2022-10-13T08:48:03.249Z,87.88
2022-10-13T08:50:33.553Z,86.17
2022-10-13T08:53:02.989Z,83.72
2022-10-13T08:55:44.352Z,83.33
2022-10-13T08:58:23.186Z,82.74
2022-10-13T09:01:06.737Z,82.15
2022-10-13T09:03:38.797Z,82.55
2022-10-13T09:06:05.312Z,81.91
2022-10-13T09:08:59.139Z,81.67
2022-10-13T09:11:32.383Z,81.37
2022-10-13T09:14:05.351Z,80.49
2022-10-13T09:16:41.080Z,80.62
2022-10-13T09:19:20.010Z,81.14
2022-10-13T09:21:47.384Z,79.17
2022-10-13T09:24:17.579Z,79.34
2022-10-13T09:26:46.309Z,79.59
2022-10-13T09:29:18.320Z,78.39
2022-10-13T09:31:45.389Z,76.40
2022-10-13T09:34:25.229Z,76.09
2022-10-13T09:37:03.319Z,75.14
2022-10-13T09:39:31.823Z,74.33
2022-10-13T09:42:25.963Z,73.71
2022-10-13T09:45:17.440Z,72.91
2022-10-13T09:47:59.619Z,74.26
2022-10-13T09:50:29.594Z,73.48
2022-10-13T09:53:23.992Z,73.37
2022-10-13T09:56:26.821Z,73.98
2022-10-13T09:59:27.519Z,73.12
2022-10-13T10:01:57.241Z,73.43
2022-10-13T10:04:35.312Z,73.84
2022-10-13T10:07:11.795Z,74.02
2022-10-13T10:09:49.825Z,75.62
2022-10-13T10:12:22.992Z,75.56
2022-10-13T10:14:53.460Z,74.37
2022-10-13T10:17:44.900Z,73.98
2022-10-13T10:20:38.181Z,74.36
2022-10-13T10:23:38.057Z,74.11
2022-10-13T10:26:22.132Z,73.24
2022-10-13T10:29:16.756Z,71.74
2022-10-13T10:31:53.597Z,71.65
2022-10-13T10:34:37.090Z,72.53
2022-10-13T10:37:29.679Z,72.36
2022-10-13T10:40:21.780Z,72.06
2022-10-13T10:42:52.261Z,69.64
2022-10-13T10:45:24.973Z,71.72
2022-10-13T10:47:59.261Z,70.94
2022-10-13T10:50:26.672Z,71.72
2022-10-13T10:53:02.922Z,70.84
2022-10-13T10:55:56.359Z,71.19
2022-10-13T10:58:40.511Z,70.34
2022-10-13T11:01:33.543Z,70.44
2022-10-13T11:04:32.364Z,70.39
2022-10-13T11:07:04.099Z,70.17
2022-10-13T11:09:42.747Z,70.10
2022-10-13T11:12:21.922Z,70.86
2022-10-13T11:15:13.824Z,71.05
2022-10-13T11:17:41.436Z,70.79
2022-10-13T11:20:34.109Z,70.87
2022-10-13T11:23:00.540Z,70.22
2022-10-13T11:26:19.036Z,69.29
2022-10-13T11:28:48.172Z,70.12
2022-10-13T11:31:33.470Z,69.77
2022-10-13T11:34:02.573Z,70.65
2022-10-13T11:36:39.392Z,70.04
2022-10-13T11:39:06.052Z,70.24
2022-10-13T11:41:55.204Z,70.83
2022-10-13T11:44:45.947Z,69.02
2022-10-13T11:47:36.662Z,69.89
2022-10-13T11:50:06.214Z,64.07
2022-10-13T11:52:57.011Z,62.30
2022-10-13T11:55:42.715Z,62.36
2022-10-13T11:58:17.312Z,60.54
2022-10-13T12:00:57.449Z,61.31
2022-10-13T12:04:04.749Z,61.26
2022-10-13T12:06:34.937Z,59.51
2022-10-13T12:09:20.451Z,58.48
2022-10-13T12:11:57.780Z,59.09
2022-10-13T12:14:33.292Z,59.00
2022-10-13T12:17:01.517Z,59.69
2022-10-13T12:19:30.715Z,60.30
2022-10-13T12:22:12.178Z,61.19
2022-10-13T12:25:25.503Z,61.12
2022-10-13T12:27:57.846Z,61.33
2022-10-13T12:30:27.508Z,61.20
2022-10-13T12:32:56.591Z,61.73
2022-10-13T12:35:28.852Z,62.44
2022-10-13T12:37:57.162Z,61.94
2022-10-13T12:40:25.004Z,62.42
2022-10-13T12:42:51.722Z,62.17
2022-10-13T12:45:21.525Z,62.26
2022-10-13T12:47:51.269Z,61.58
2022-10-13T12:50:29.929Z,60.71
2022-10-13T12:53:06.263Z,61.32
2022-10-13T12:55:33.110Z,61.73
2022-10-13T12:58:00.561Z,60.84
2022-10-13T13:00:29.946Z,61.46
2022-10-13T13:03:01.842Z,62.46
2022-10-13T13:05:50.866Z,62.39
2022-10-13T13:08:29.853Z,62.38
2022-10-13T13:11:00.246Z,62.05
2022-10-13T13:13:31.154Z,62.54
2022-10-13T13:16:18.356Z,62.82
2022-10-13T13:18:46.852Z,63.86
2022-10-13T13:21:16.088Z,64.79
2022-10-13T13:23:50.974Z,63.32
2022-10-13T13:26:22.793Z,65.04
2022-10-13T13:28:51.863Z,62.89
2022-10-13T13:31:21.049Z,63.67
2022-10-13T13:33:48.357Z,63.86
2022-10-13T13:36:18.646Z,62.92
2022-10-13T13:38:45.737Z,64.74
2022-10-13T13:41:13.395Z,63.93
2022-10-13T13:43:40.595Z,63.49
2022-10-13T13:46:14.482Z,64.17
2022-10-13T13:48:41.048Z,64.61
2022-10-13T13:51:09.634Z,65.91
2022-10-13T13:53:37.746Z,65.02
2022-10-13T13:56:05.086Z,65.73
2022-10-13T13:58:31.784Z,65.27
2022-10-13T14:00:59.953Z,65.49
2022-10-13T14:03:26.515Z,64.59
2022-10-13T14:05:53.042Z,65.35
2022-10-13T14:08:21.588Z,64.09
2022-10-13T14:10:48.184Z,64.82
2022-10-13T14:13:14.802Z,65.97
2022-10-13T14:15:41.293Z,66.06
2022-10-13T14:18:07.887Z,64.37
2022-10-13T14:20:34.361Z,63.22
2022-10-13T14:23:00.904Z,63.06
2022-10-13T14:25:27.355Z,63.36
2022-10-13T14:27:53.856Z,62.01
2022-10-13T14:30:20.443Z,60.33
2022-10-13T14:32:46.929Z,61.36
2022-10-13T14:35:13.513Z,62.07
2022-10-13T14:37:40.207Z,64.43
2022-10-13T14:40:07.245Z,64.33
2022-10-13T14:42:33.850Z,63.82
2022-10-13T14:45:00.524Z,64.32
2022-10-13T14:47:27.875Z,65.10
2022-10-13T14:49:54.403Z,65.50
2022-10-13T14:52:20.960Z,64.15
2022-10-13T14:54:47.634Z,65.35
2022-10-13T14:57:16.056Z,63.27
2022-10-13T14:59:43.287Z,63.79
2022-10-13T15:02:13.887Z,64.61
2022-10-13T15:04:41.435Z,64.64
2022-10-13T15:07:08.356Z,63.92
2022-10-13T15:09:52.162Z,64.12
2022-10-13T15:12:19.427Z,64.39
2022-10-13T15:14:46.129Z,65.68
2022-10-13T15:17:15.712Z,66.27
2022-10-13T15:19:42.336Z,66.82
2022-10-13T15:22:08.794Z,66.71
2022-10-13T15:24:36.364Z,67.14
2022-10-13T15:27:02.872Z,67.32
2022-10-13T15:29:29.440Z,68.00
2022-10-13T15:32:08.252Z,68.40
2022-10-13T15:34:34.942Z,68.52
2022-10-13T15:37:01.427Z,69.32
2022-10-13T15:39:28.161Z,69.64
2022-10-13T15:41:54.845Z,70.34
2022-10-13T15:44:27.676Z,70.73
2022-10-13T15:49:42.544Z,71.37
2022-10-13T15:51:55.416Z,70.89
2022-10-13T15:52:10.158Z,71.96
2022-10-13T15:54:43.634Z,71.99
2022-10-13T15:57:14.660Z,72.59
2022-10-13T15:59:56.664Z,72.82
2022-10-13T16:05:11.851Z,73.25
2022-10-13T16:07:40.126Z,73.94
2022-10-13T16:10:09.343Z,74.29
2022-10-13T16:12:36.528Z,74.51
2022-10-13T16:15:03.180Z,75.02
2022-10-13T16:17:29.894Z,75.09
2022-10-13T16:19:56.570Z,75.47
2022-10-13T16:22:23.858Z,76.12
2022-10-13T16:24:50.314Z,76.15
2022-10-13T16:27:40.428Z,76.29
2022-10-13T16:30:09.987Z,76.32
2022-10-13T16:32:40.222Z,77.22
2022-10-13T16:35:07.677Z,77.39
2022-10-13T16:37:34.153Z,77.76
2022-10-13T16:40:00.725Z,77.99
2022-10-13T16:42:27.403Z,78.39
2022-10-13T16:44:54.912Z,78.59
2022-10-13T16:47:21.662Z,79.10
2022-10-13T16:49:48.452Z,79.27
2022-10-13T16:52:14.969Z,79.30
2022-10-13T16:54:43.607Z,79.77
2022-10-13T16:57:11.219Z,80.02
2022-10-13T16:59:38.805Z,80.01
2022-10-13T17:02:05.233Z,80.25
2022-10-13T17:04:32.779Z,80.32
2022-10-13T17:07:02.809Z,80.59
2022-10-13T17:09:30.413Z,80.74
2022-10-13T17:11:56.887Z,80.95
2022-10-13T17:14:24.361Z,81.39
2022-10-13T17:16:54.193Z,81.59
2022-10-13T17:19:23.960Z,81.75
2022-10-13T17:21:50.451Z,82.14
2022-10-13T17:24:17.305Z,82.33
2022-10-13T17:26:43.889Z,82.39
2022-10-13T17:29:10.667Z,82.82
2022-10-13T17:31:38.259Z,82.89
2022-10-13T17:34:06.191Z,83.07
2022-10-13T17:36:34.274Z,83.39
2022-10-13T17:39:06.851Z,83.30
2022-10-13T17:41:33.732Z,83.26
2022-10-13T17:44:00.303Z,83.92
2022-10-13T17:46:38.709Z,83.77
2022-10-13T17:49:11.287Z,84.12
2022-10-13T17:51:38.536Z,84.40
2022-10-13T17:54:05.613Z,84.57
2022-10-13T17:56:32.700Z,85.07
2022-10-13T17:59:00.547Z,85.02
2022-10-13T18:01:29.730Z,85.12
2022-10-13T18:03:58.585Z,85.55
2022-10-13T18:06:25.832Z,85.57
2022-10-13T18:08:52.436Z,86.04
2022-10-13T18:11:22.727Z,86.99
2022-10-13T18:13:49.793Z,87.73
2022-10-13T18:16:23.871Z,87.72
2022-10-13T18:18:53.076Z,88.04
2022-10-13T18:21:28.053Z,87.90
2022-10-13T18:23:56.595Z,88.10
2022-10-13T18:26:24.246Z,88.34
2022-10-13T18:28:52.155Z,88.24
2022-10-13T18:31:22.236Z,88.44
2022-10-13T18:33:49.615Z,88.55
2022-10-13T18:36:23.656Z,89.00
2022-10-13T18:38:51.020Z,89.07
2022-10-13T18:43:51.656Z,89.25
2022-10-13T18:46:18.874Z,89.71
2022-10-13T18:48:45.446Z,89.93
2022-10-13T18:51:14.833Z,89.92
2022-10-13T18:53:43.510Z,90.37
2022-10-13T18:56:15.257Z,90.44
2022-10-13T18:58:41.989Z,90.58
2022-10-13T19:01:13.910Z,90.67
2022-10-13T19:03:45.771Z,90.89
2022-10-13T19:06:14.360Z,91.04
2022-10-13T19:08:46.035Z,90.89
2022-10-13T19:11:20.537Z,90.99
2022-10-13T19:13:48.156Z,91.17
2022-10-13T19:16:17.321Z,92.07
2022-10-13T19:18:44.298Z,91.63
2022-10-13T19:21:11.898Z,91.74
2022-10-13T19:23:39.225Z,91.94
2022-10-13T19:26:13.949Z,92.17
2022-10-13T19:28:41.822Z,92.89
2022-10-13T19:31:17.128Z,92.44
2022-10-13T19:33:47.039Z,92.10
2022-10-13T19:36:25.724Z,92.60
2022-10-13T19:38:52.569Z,92.31
2022-10-13T19:41:19.231Z,92.52
2022-10-13T19:43:45.894Z,92.56
2022-10-13T19:46:12.738Z,92.46
2022-10-13T19:48:39.409Z,92.94
2022-10-13T19:51:08.094Z,93.02
2022-10-13T19:53:36.526Z,92.40
2022-10-13T19:56:03.956Z,92.03
2022-10-13T19:58:30.545Z,92.00
2022-10-13T20:01:03.424Z,92.85
2022-10-13T20:03:30.030Z,92.32
2022-10-13T20:05:56.508Z,92.59
2022-10-13T20:08:23.047Z,92.90
2022-10-13T20:10:51.259Z,93.21
2022-10-13T20:13:18.184Z,93.34
2022-10-13T20:15:44.768Z,93.48
2022-10-13T20:18:13.129Z,93.28
2022-10-13T20:20:42.193Z,93.54
2022-10-13T20:23:09.369Z,93.85
2022-10-13T20:25:38.955Z,93.49
2022-10-13T20:28:07.157Z,93.37
2022-10-13T20:30:39.450Z,93.14
2022-10-13T20:33:08.775Z,93.32
2022-10-13T20:35:36.390Z,93.17
2022-10-13T20:38:02.863Z,92.77
2022-10-13T20:40:29.327Z,92.89
2022-10-13T20:42:55.729Z,92.88
2022-10-13T20:45:22.422Z,92.65
2022-10-13T20:47:49.464Z,92.75
2022-10-13T20:50:16.041Z,92.75
2022-10-13T20:52:42.569Z,92.97
2022-10-13T20:55:09.440Z,92.92
2022-10-13T20:57:53.331Z,93.12
2022-10-13T21:00:19.959Z,92.89
2022-10-13T21:02:47.549Z,93.19
2022-10-13T21:05:14.872Z,93.33
2022-10-13T21:07:42.187Z,93.12
2022-10-13T21:10:09.082Z,93.42
2022-10-13T21:12:35.549Z,93.30
2022-10-13T21:15:02.032Z,93.21
2022-10-13T21:17:29.917Z,93.72
2022-10-13T21:19:56.493Z,93.13
2022-10-13T21:22:22.939Z,93.69
2022-10-13T21:24:49.428Z,93.72
2022-10-13T21:27:15.905Z,93.84
2022-10-13T21:29:42.472Z,93.74
2022-10-13T21:32:09.037Z,93.51
2022-10-13T21:34:35.544Z,93.29
2022-10-13T21:37:02.038Z,93.32
2022-10-13T21:39:28.525Z,93.42
2022-10-13T21:41:55.021Z,93.17
2022-10-13T21:44:21.654Z,92.88
2022-10-13T21:46:48.173Z,93.29
2022-10-13T21:49:14.636Z,93.47
2022-10-13T21:51:41.418Z,93.23
2022-10-13T21:54:12.808Z,93.07
2022-10-13T21:56:40.595Z,92.79
2022-10-13T21:59:08.047Z,92.82
2022-10-13T22:01:34.892Z,92.14
2022-10-13T22:04:02.625Z,92.57
2022-10-13T22:06:32.136Z,92.70
2022-10-13T22:09:00.716Z,93.00
2022-10-13T22:11:29.814Z,92.90
2022-10-13T22:13:57.518Z,93.00
2022-10-13T22:16:30.877Z,92.82
2022-10-13T22:18:57.856Z,92.35
2022-10-13T22:21:30.284Z,92.87
2022-10-13T22:23:59.259Z,92.79
2022-10-13T22:26:28.099Z,92.84
2022-10-13T22:28:54.956Z,93.40
2022-10-13T22:31:21.600Z,93.19
2022-10-13T22:33:53.760Z,93.53
2022-10-13T22:36:25.249Z,93.41
2022-10-13T22:38:53.960Z,93.21
2022-10-13T22:41:20.861Z,93.00
2022-10-13T22:43:56.214Z,93.04
2022-10-13T22:46:26.495Z,93.32
2022-10-13T22:48:53.782Z,93.12
2022-10-13T22:51:22.293Z,93.44
2022-10-13T22:53:49.828Z,92.73
2022-10-13T22:56:25.073Z,93.19
2022-10-13T22:59:00.250Z,93.53
2022-10-13T23:01:27.048Z,93.38
2022-10-13T23:03:56.350Z,93.10
2022-10-13T23:06:25.544Z,93.37
2022-10-13T23:08:52.568Z,93.39
2022-10-13T23:11:19.604Z,93.42
2022-10-13T23:13:46.133Z,93.74
2022-10-13T23:16:15.836Z,93.62
2022-10-13T23:18:43.365Z,93.68
2022-10-13T23:21:16.146Z,94.21
2022-10-13T23:23:43.285Z,93.86
2022-10-13T23:26:13.079Z,94.38
2022-10-13T23:28:40.800Z,94.14
2022-10-13T23:31:11.782Z,94.34
2022-10-13T23:33:38.248Z,94.34
2022-10-13T23:36:05.812Z,94.19
2022-10-13T23:38:33.187Z,94.09
2022-10-13T23:41:08.665Z,94.24
2022-10-13T23:43:35.934Z,94.34
2022-10-13T23:46:02.804Z,94.20
2022-10-13T23:48:29.411Z,94.19
2022-10-13T23:50:56.000Z,93.89
2022-10-13T23:53:22.745Z,94.23
2022-10-13T23:55:49.251Z,94.24
2022-10-13T23:58:15.858Z,93.91
